createdAt,value
2023-03-03T00:00:32.351Z,8.97
2023-03-03T00:03:34.657Z,10.40
2023-03-03T00:06:36.711Z,10.20
2023-03-03T00:09:38.663Z,9.50
2023-03-03T00:12:48.961Z,10.67
2023-03-03T00:15:51.960Z,9.23
2023-03-03T00:18:55.226Z,10.70
2023-03-03T00:21:57.776Z,10.10
2023-03-03T00:25:16.293Z,10.77
2023-03-03T00:28:33.173Z,12.63
2023-03-03T00:31:37.113Z,11.80
2023-03-03T00:34:39.010Z,12.53
2023-03-03T00:37:41.493Z,12.23
2023-03-03T00:40:43.747Z,14.03
2023-03-03T00:43:45.686Z,13.97
2023-03-03T00:46:47.584Z,13.53
2023-03-03T00:49:49.579Z,13.93
2023-03-03T00:53:05.248Z,14.47
2023-03-03T00:56:08.000Z,12.63
2023-03-03T00:59:12.372Z,12.17
2023-03-03T01:02:14.400Z,13.37
2023-03-03T01:05:18.460Z,13.87
2023-03-03T01:08:21.917Z,13.77
2023-03-03T01:11:25.319Z,13.77
2023-03-03T01:14:27.303Z,13.13
2023-03-03T01:17:29.369Z,14.37
2023-03-03T01:20:31.412Z,14.57
2023-03-03T01:23:34.175Z,14.07
2023-03-03T01:26:36.354Z,14.13
2023-03-03T01:29:38.283Z,15.73
2023-03-03T01:32:40.620Z,16.10
2023-03-03T01:35:47.576Z,15.10
2023-03-03T01:38:49.665Z,15.20
2023-03-03T01:41:51.522Z,13.40
2023-03-03T01:45:22.010Z,14.23
2023-03-03T01:48:26.754Z,14.57
2023-03-03T01:51:35.927Z,14.03
2023-03-03T01:54:44.734Z,14.37
2023-03-03T01:57:50.273Z,12.87
2023-03-03T02:00:55.927Z,12.50
2023-03-03T02:03:58.210Z,13.57
2023-03-03T02:07:07.769Z,14.13
2023-03-03T02:10:13.137Z,13.93
2023-03-03T02:13:15.828Z,13.20
2023-03-03T02:16:17.858Z,12.97
2023-03-03T02:19:45.680Z,12.97
2023-03-03T02:23:03.913Z,13.33
2023-03-03T02:26:23.029Z,13.60
2023-03-03T02:29:25.019Z,13.03
2023-03-03T02:32:26.963Z,13.97
2023-03-03T02:35:30.273Z,13.60
2023-03-03T02:38:42.358Z,13.57
2023-03-03T02:41:52.742Z,12.37
2023-03-03T02:44:54.641Z,14.07
2023-03-03T02:47:56.686Z,13.97
2023-03-03T02:50:58.735Z,14.13
2023-03-03T02:54:02.323Z,14.13
2023-03-03T02:57:05.079Z,14.40
2023-03-03T03:00:08.100Z,15.03
2023-03-03T03:03:10.006Z,15.27
2023-03-03T03:06:12.064Z,13.43
2023-03-03T03:09:16.959Z,13.70
2023-03-03T03:12:21.356Z,14.50
2023-03-03T03:15:23.294Z,13.13
2023-03-03T03:18:25.514Z,14.90
2023-03-03T03:21:28.004Z,13.13
2023-03-03T03:24:29.920Z,13.90
2023-03-03T03:27:32.334Z,13.53
2023-03-03T03:30:37.102Z,13.10
2023-03-03T03:33:39.051Z,13.03
2023-03-03T03:36:41.995Z,13.80
2023-03-03T03:39:43.950Z,15.30
2023-03-03T03:42:46.450Z,18.83
2023-03-03T03:45:48.530Z,18.83
2023-03-03T03:48:51.024Z,17.87
2023-03-03T03:51:52.998Z,21.47
2023-03-03T03:54:54.957Z,19.23
2023-03-03T03:57:57.672Z,20.50
2023-03-03T04:01:05.030Z,19.83
2023-03-03T04:04:07.002Z,19.37
2023-03-03T04:07:11.618Z,18.83
2023-03-03T04:10:13.728Z,19.57
2023-03-03T04:13:15.637Z,18.90
2023-03-03T04:16:17.554Z,18.00
2023-03-03T04:19:19.689Z,18.43
2023-03-03T04:22:21.717Z,16.90
2023-03-03T04:25:24.014Z,16.83
2023-03-03T04:28:27.428Z,16.17
2023-03-03T04:31:29.370Z,15.27
2023-03-03T04:34:31.301Z,15.10
2023-03-03T04:37:33.804Z,17.43
2023-03-03T04:40:35.702Z,16.73
2023-03-03T04:43:37.688Z,15.47
2023-03-03T04:46:39.576Z,14.60
2023-03-03T04:49:42.076Z,14.87
2023-03-03T04:52:44.021Z,14.13
2023-03-03T04:55:46.262Z,14.43
2023-03-03T04:58:48.220Z,14.77
2023-03-03T05:01:51.460Z,15.50
2023-03-03T05:04:54.016Z,16.97
2023-03-03T05:07:56.006Z,17.60
2023-03-03T05:11:00.108Z,19.50
2023-03-03T05:14:03.462Z,17.17
2023-03-03T05:17:06.476Z,17.73
2023-03-03T05:20:10.615Z,16.57
2023-03-03T05:23:12.533Z,15.97
2023-03-03T05:26:14.586Z,16.47
2023-03-03T05:29:16.686Z,15.93
2023-03-03T05:32:19.350Z,17.03
2023-03-03T05:35:21.454Z,16.77
2023-03-03T05:38:24.892Z,18.57
2023-03-03T05:41:26.877Z,18.23
2023-03-03T05:44:29.994Z,16.17
2023-03-03T05:47:32.389Z,17.57
2023-03-03T05:50:34.318Z,16.40
2023-03-03T05:53:36.213Z,17.87
2023-03-03T05:56:38.079Z,18.43
2023-03-03T05:59:40.056Z,16.93
2023-03-03T06:02:43.285Z,17.90
2023-03-03T06:05:45.235Z,18.67
2023-03-03T06:08:47.208Z,19.80
2023-03-03T06:11:49.605Z,20.33
2023-03-03T06:14:51.623Z,21.80
2023-03-03T06:17:53.576Z,21.40
2023-03-03T06:20:55.953Z,22.00
2023-03-03T06:23:57.877Z,23.17
2023-03-03T06:27:01.184Z,21.60
2023-03-03T06:30:03.325Z,23.40
2023-03-03T06:33:05.552Z,23.17
2023-03-03T06:36:08.345Z,24.03
2023-03-03T06:39:10.622Z,21.43
2023-03-03T06:42:12.525Z,21.70
2023-03-03T06:45:15.387Z,20.07
2023-03-03T06:48:17.392Z,21.40
2023-03-03T06:51:30.217Z,21.77
2023-03-03T06:54:32.100Z,22.60
2023-03-03T06:57:34.225Z,20.97
2023-03-03T07:00:36.514Z,22.73
2023-03-03T07:03:38.499Z,21.63
2023-03-03T07:06:40.413Z,22.73
2023-03-03T07:09:45.616Z,21.73
2023-03-03T07:12:47.652Z,21.67
2023-03-03T07:15:51.729Z,21.87
2023-03-03T07:18:54.971Z,20.07
2023-03-03T07:21:56.966Z,21.63
2023-03-03T07:25:03.724Z,22.13
2023-03-03T07:28:16.400Z,22.33
2023-03-03T07:31:37.604Z,21.80
2023-03-03T07:34:44.713Z,21.23
2023-03-03T07:37:46.782Z,20.10
2023-03-03T07:40:53.367Z,21.93
2023-03-03T07:44:05.142Z,20.73
2023-03-03T07:47:20.460Z,24.03
2023-03-03T07:50:23.581Z,22.63
2023-03-03T07:53:30.535Z,23.00
2023-03-03T07:56:36.098Z,22.97
2023-03-03T07:59:39.476Z,22.80
2023-03-03T08:02:58.233Z,21.27
2023-03-03T08:06:21.426Z,21.70
2023-03-03T08:09:31.409Z,22.20
2023-03-03T08:12:43.169Z,23.60
2023-03-03T08:15:47.746Z,24.00
2023-03-03T08:18:52.011Z,25.40
2023-03-03T08:22:01.736Z,25.13
2023-03-03T08:25:03.903Z,27.30
2023-03-03T08:28:05.805Z,25.80
2023-03-03T08:31:18.315Z,25.30
2023-03-03T08:34:24.988Z,24.87
2023-03-03T08:37:27.382Z,24.67
2023-03-03T08:40:29.371Z,26.43
2023-03-03T08:43:32.168Z,25.53
2023-03-03T08:46:34.115Z,26.43
2023-03-03T08:49:36.467Z,25.63
2023-03-03T08:52:38.350Z,24.67
2023-03-03T08:55:41.888Z,23.77
2023-03-03T08:59:03.824Z,26.40
2023-03-03T09:02:07.415Z,25.67
2023-03-03T09:05:10.333Z,24.07
2023-03-03T09:08:12.956Z,26.33
2023-03-03T09:11:15.893Z,26.43
2023-03-03T09:14:19.162Z,26.47
2023-03-03T09:17:30.123Z,26.67
2023-03-03T09:20:38.265Z,26.57
2023-03-03T09:23:54.216Z,25.70
2023-03-03T09:27:00.788Z,26.60
2023-03-03T09:30:21.914Z,29.43
2023-03-03T09:33:28.932Z,26.37
2023-03-03T09:36:37.739Z,28.60
2023-03-03T09:39:39.892Z,28.00
2023-03-03T09:43:19.882Z,27.77
2023-03-03T09:46:45.910Z,26.93
2023-03-03T09:50:26.810Z,26.07
2023-03-03T09:53:47.334Z,28.00
2023-03-03T09:57:16.349Z,27.73
2023-03-03T10:00:49.903Z,27.43
2023-03-03T10:04:33.451Z,28.80
2023-03-03T10:07:54.304Z,27.47
2023-03-03T10:11:14.280Z,26.87
2023-03-03T10:14:37.655Z,26.47
2023-03-03T10:17:49.821Z,25.87
2023-03-03T10:21:10.987Z,28.53
2023-03-03T10:24:23.923Z,27.17
2023-03-03T10:27:47.824Z,27.93
2023-03-03T10:31:05.608Z,29.63
2023-03-03T10:34:32.945Z,29.73
2023-03-03T10:37:43.904Z,30.77
2023-03-03T10:41:11.968Z,29.30
2023-03-03T10:44:55.169Z,29.80
2023-03-03T10:48:23.066Z,28.57
2023-03-03T10:51:56.077Z,26.80
2023-03-03T10:55:05.619Z,27.97
2023-03-03T10:58:12.600Z,28.97
2023-03-03T11:01:14.531Z,27.57
2023-03-03T11:04:36.718Z,27.53
2023-03-03T11:08:03.418Z,28.60
2023-03-03T11:11:56.183Z,27.97
2023-03-03T11:15:18.584Z,29.73
2023-03-03T11:18:36.983Z,27.70
2023-03-03T11:21:47.832Z,27.03
2023-03-03T11:25:18.965Z,28.57
2023-03-03T11:28:41.866Z,29.67
2023-03-03T11:32:02.266Z,28.97
2023-03-03T11:35:24.178Z,29.10
2023-03-03T11:38:49.474Z,28.23
2023-03-03T11:42:19.371Z,28.43
2023-03-03T11:45:39.863Z,27.90
2023-03-03T11:49:00.451Z,27.90
2023-03-03T11:52:36.419Z,28.13
2023-03-03T11:55:41.223Z,25.87
2023-03-03T11:58:47.737Z,26.37
2023-03-03T12:02:00.791Z,28.43
2023-03-03T12:05:11.078Z,27.30
2023-03-03T12:08:19.796Z,27.93
2023-03-03T12:11:42.831Z,28.70
2023-03-03T12:14:47.758Z,25.20
2023-03-03T12:18:26.877Z,26.30
2023-03-03T12:22:00.182Z,24.07
2023-03-03T12:25:20.784Z,24.23
2023-03-03T12:28:26.390Z,26.60
2023-03-03T12:32:03.078Z,25.07
2023-03-03T12:35:12.554Z,24.17
2023-03-03T12:38:36.479Z,25.23
2023-03-03T12:41:38.318Z,23.53
2023-03-03T12:44:59.833Z,22.70
2023-03-03T12:48:10.257Z,23.23
2023-03-03T12:51:40.416Z,22.73
2023-03-03T12:54:51.051Z,23.20
2023-03-03T12:58:07.910Z,24.33
2023-03-03T13:01:09.784Z,24.37
2023-03-03T13:04:30.272Z,22.63
2023-03-03T13:07:46.283Z,23.23
2023-03-03T13:11:06.980Z,25.57
2023-03-03T13:14:23.597Z,24.30
2023-03-03T13:17:40.675Z,26.43
2023-03-03T13:20:59.822Z,25.77
2023-03-03T13:24:04.822Z,25.93
2023-03-03T13:27:20.212Z,25.00
2023-03-03T13:30:30.706Z,25.73
2023-03-03T13:33:35.542Z,24.80
2023-03-03T13:37:04.546Z,27.73
2023-03-03T13:40:15.946Z,25.33
2023-03-03T13:43:43.457Z,26.23
2023-03-03T13:47:06.868Z,25.07
2023-03-03T13:50:25.615Z,25.57
2023-03-03T13:53:36.763Z,25.40
2023-03-03T13:57:21.653Z,24.70
2023-03-03T14:00:37.441Z,25.63
2023-03-03T14:03:43.709Z,24.30
2023-03-03T14:06:55.196Z,24.10
2023-03-03T14:10:13.488Z,23.63
2023-03-03T14:13:46.057Z,25.60
2023-03-03T14:16:53.963Z,26.60
2023-03-03T14:20:17.204Z,24.67
2023-03-03T14:23:19.193Z,25.77
2023-03-03T14:26:21.444Z,26.10
2023-03-03T14:29:32.126Z,27.13
2023-03-03T14:32:45.058Z,25.50
2023-03-03T14:35:57.240Z,24.63
2023-03-03T14:39:00.201Z,23.27
2023-03-03T14:42:04.767Z,24.53
2023-03-03T14:45:31.084Z,24.13
2023-03-03T14:48:33.075Z,22.70
2023-03-03T14:51:46.781Z,24.63
2023-03-03T14:55:00.559Z,23.83
2023-03-03T14:58:04.291Z,24.23
2023-03-03T15:01:24.402Z,25.07
2023-03-03T15:04:28.841Z,26.00
2023-03-03T15:07:35.042Z,24.73
2023-03-03T15:10:44.857Z,23.07
2023-03-03T15:13:46.800Z,23.47
2023-03-03T15:16:48.840Z,24.47
2023-03-03T15:19:55.646Z,23.90
2023-03-03T15:23:34.927Z,23.60
2023-03-03T15:26:57.115Z,22.33
2023-03-03T15:30:03.033Z,23.17
2023-03-03T15:33:38.567Z,23.23
2023-03-03T15:36:58.997Z,24.57
2023-03-03T15:40:09.744Z,22.27
2023-03-03T15:43:22.371Z,23.73
2023-03-03T15:46:39.266Z,21.77
2023-03-03T15:50:00.384Z,21.63
2023-03-03T15:53:08.352Z,22.77
2023-03-03T15:56:16.870Z,22.50
2023-03-03T15:59:47.191Z,22.03
2023-03-03T16:02:59.568Z,23.30
2023-03-03T16:06:12.466Z,23.17
2023-03-03T16:09:23.386Z,22.53
2023-03-03T16:12:52.589Z,22.77
2023-03-03T16:16:21.918Z,22.63
2023-03-03T16:19:31.864Z,23.00
2023-03-03T16:22:42.372Z,22.27
2023-03-03T16:25:47.317Z,23.00
2023-03-03T16:29:22.898Z,24.80
2023-03-03T16:32:33.891Z,23.20
2023-03-03T16:35:44.619Z,23.00
2023-03-03T16:38:58.762Z,22.27
2023-03-03T16:42:21.652Z,22.57
2023-03-03T16:45:27.818Z,21.93
2023-03-03T16:48:41.862Z,19.60
2023-03-03T16:51:57.143Z,20.30
2023-03-03T16:55:22.147Z,21.00
2023-03-03T16:58:45.917Z,21.47
2023-03-03T17:02:23.186Z,20.53
2023-03-03T17:05:35.845Z,21.43
2023-03-03T17:09:08.484Z,20.03
2023-03-03T17:12:49.177Z,21.40
2023-03-03T17:16:06.052Z,21.43
2023-03-03T17:19:36.539Z,23.20
2023-03-03T17:22:59.789Z,21.90
2023-03-03T17:26:20.854Z,23.53
2023-03-03T17:29:50.129Z,22.33
2023-03-03T17:33:22.593Z,22.13
2023-03-03T17:36:57.138Z,24.93
2023-03-03T17:40:17.746Z,23.23
2023-03-03T17:43:25.765Z,20.73
2023-03-03T17:46:33.960Z,20.90
2023-03-03T17:50:00.858Z,23.07
2023-03-03T17:53:21.024Z,20.43
2023-03-03T17:56:49.147Z,20.93
2023-03-03T18:00:26.826Z,21.90
2023-03-03T18:04:04.365Z,21.10
2023-03-03T18:07:36.562Z,20.80
2023-03-03T18:10:42.945Z,21.43
2023-03-03T18:13:47.920Z,21.90
2023-03-03T18:17:10.156Z,21.30
2023-03-03T18:20:24.134Z,18.83
2023-03-03T18:23:31.276Z,20.47
2023-03-03T18:26:36.184Z,20.57
2023-03-03T18:29:38.108Z,22.77
2023-03-03T18:33:02.037Z,20.80
2023-03-03T18:36:15.310Z,20.77
2023-03-03T18:39:35.836Z,21.50
2023-03-03T18:42:42.621Z,21.20
2023-03-03T18:45:44.580Z,22.73
2023-03-03T18:49:09.133Z,19.53
2023-03-03T18:52:19.538Z,19.90
2023-03-03T18:55:25.257Z,20.43
2023-03-03T18:58:36.730Z,20.47
2023-03-03T19:01:45.625Z,20.10
2023-03-03T19:04:56.367Z,20.53
2023-03-03T19:08:00.104Z,18.97
2023-03-03T19:11:03.275Z,19.27
2023-03-03T19:14:28.530Z,19.67
2023-03-03T19:17:52.845Z,19.07
2023-03-03T19:21:03.694Z,18.80
2023-03-03T19:24:24.699Z,20.10
2023-03-03T19:28:09.204Z,18.00
2023-03-03T19:31:33.139Z,17.47
2023-03-03T19:35:13.478Z,18.60
2023-03-03T19:38:24.387Z,18.60
2023-03-03T19:41:48.436Z,17.60
2023-03-03T19:45:05.170Z,17.03
2023-03-03T19:49:02.108Z,16.97
2023-03-03T19:52:14.107Z,19.93
2023-03-03T19:55:32.627Z,18.43
2023-03-03T19:58:51.156Z,19.30
2023-03-03T20:02:14.422Z,18.07
2023-03-03T20:05:39.040Z,17.03
2023-03-03T20:09:16.460Z,17.10
2023-03-03T20:12:22.267Z,16.93
2023-03-03T20:15:31.933Z,16.60
2023-03-03T20:19:01.695Z,18.87
2023-03-03T20:22:12.392Z,17.70
2023-03-03T20:25:27.825Z,26.00
2023-03-03T20:29:02.981Z,22.27
2023-03-03T20:32:11.769Z,21.30
2023-03-03T20:35:38.205Z,22.00
2023-03-03T20:39:08.468Z,21.00
2023-03-03T20:42:52.852Z,22.03
2023-03-03T20:45:54.869Z,25.40
2023-03-03T20:49:02.737Z,24.17
2023-03-03T20:52:26.089Z,23.60
2023-03-03T20:55:46.339Z,25.33
2023-03-03T20:59:09.492Z,26.03
2023-03-03T21:02:24.665Z,26.57
2023-03-03T21:05:26.622Z,30.10
2023-03-03T21:08:55.555Z,25.97
2023-03-03T21:11:58.997Z,27.23
2023-03-03T21:15:22.865Z,27.63
2023-03-03T21:18:25.477Z,27.00
2023-03-03T21:21:30.115Z,28.73
2023-03-03T21:24:52.678Z,26.77
2023-03-03T21:28:33.058Z,21.57
2023-03-03T21:32:05.520Z,20.00
2023-03-03T21:35:13.560Z,20.60
2023-03-03T21:38:32.812Z,20.43
2023-03-03T21:41:55.726Z,19.67
2023-03-03T21:44:57.603Z,20.97
2023-03-03T21:48:02.456Z,20.87
2023-03-03T21:51:05.338Z,21.17
2023-03-03T21:54:07.292Z,18.63
2023-03-03T21:57:10.080Z,17.77
2023-03-03T22:00:12.702Z,19.37
2023-03-03T22:03:20.600Z,18.73
2023-03-03T22:06:23.149Z,18.27
2023-03-03T22:09:25.120Z,20.10
2023-03-03T22:12:27.051Z,19.27
2023-03-03T22:15:33.537Z,19.47
2023-03-03T22:18:35.676Z,20.60
2023-03-03T22:21:38.947Z,18.80
2023-03-03T22:24:40.847Z,19.63
2023-03-03T22:27:42.666Z,19.37
2023-03-03T22:30:44.760Z,17.53
2023-03-03T22:33:47.873Z,16.77
2023-03-03T22:36:50.314Z,17.70
2023-03-03T22:39:52.186Z,18.00
2023-03-03T22:42:54.141Z,16.83
2023-03-03T22:46:05.545Z,15.77
2023-03-03T22:49:07.635Z,15.83
2023-03-03T22:52:09.624Z,15.33
2023-03-03T22:55:12.154Z,17.43
2023-03-03T22:58:14.668Z,19.40
2023-03-03T23:01:16.745Z,19.50
2023-03-03T23:04:18.712Z,18.40
2023-03-03T23:07:21.274Z,18.97
2023-03-03T23:10:23.193Z,19.53
2023-03-03T23:13:27.240Z,18.67
2023-03-03T23:16:29.302Z,18.23
2023-03-03T23:19:31.218Z,18.17
2023-03-03T23:22:33.331Z,17.60
2023-03-03T23:25:35.313Z,18.50
2023-03-03T23:28:37.217Z,19.60
2023-03-03T23:31:39.228Z,18.33
2023-03-03T23:34:41.257Z,19.30
2023-03-03T23:37:43.293Z,20.23
2023-03-03T23:40:48.675Z,19.97
2023-03-03T23:43:50.564Z,20.57
2023-03-03T23:46:52.514Z,20.23
2023-03-03T23:49:54.491Z,17.63
2023-03-03T23:52:56.782Z,20.60
2023-03-03T23:55:58.648Z,19.20
2023-03-03T23:59:01.411Z,18.37
